sensor_id;sensor_type;location;lat;lon;timestamp;temperature;humidity
65478;SHT31;53678;39.642;22.430;2023-08-06T00:00:21;27.99;60.50
65478;SHT31;53678;39.642;22.430;2023-08-06T00:02:48;27.96;60.38
65478;SHT31;53678;39.642;22.430;2023-08-06T00:05:13;27.93;60.49
65478;SHT31;53678;39.642;22.430;2023-08-06T00:07:44;27.96;60.47
65478;SHT31;53678;39.642;22.430;2023-08-06T00:10:10;27.96;60.23
65478;SHT31;53678;39.642;22.430;2023-08-06T00:12:36;27.95;60.22
65478;SHT31;53678;39.642;22.430;2023-08-06T00:15:02;27.93;60.02
65478;SHT31;53678;39.642;22.430;2023-08-06T00:17:27;27.96;59.54
65478;SHT31;53678;39.642;22.430;2023-08-06T00:19:53;27.98;59.65
65478;SHT31;53678;39.642;22.430;2023-08-06T00:22:19;27.99;59.56
65478;SHT31;53678;39.642;22.430;2023-08-06T00:24:44;27.96;59.45
65478;SHT31;53678;39.642;22.430;2023-08-06T00:27:10;28.05;59.25
65478;SHT31;53678;39.642;22.430;2023-08-06T00:29:36;28.10;59.10
65478;SHT31;53678;39.642;22.430;2023-08-06T00:32:01;28.05;59.10
65478;SHT31;53678;39.642;22.430;2023-08-06T00:34:27;28.08;59.20
65478;SHT31;53678;39.642;22.430;2023-08-06T00:36:53;27.98;59.91
65478;SHT31;53678;39.642;22.430;2023-08-06T00:39:19;27.86;60.27
65478;SHT31;53678;39.642;22.430;2023-08-06T00:41:45;27.68;60.57
65478;SHT31;53678;39.642;22.430;2023-08-06T00:44:11;27.61;60.87
65478;SHT31;53678;39.642;22.430;2023-08-06T00:46:39;27.45;61.09
65478;SHT31;53678;39.642;22.430;2023-08-06T00:49:05;26.97;62.53
65478;SHT31;53678;39.642;22.430;2023-08-06T00:51:31;26.99;62.56
65478;SHT31;53678;39.642;22.430;2023-08-06T00:53:57;26.87;62.52
65478;SHT31;53678;39.642;22.430;2023-08-06T00:56:24;26.82;62.92
65478;SHT31;53678;39.642;22.430;2023-08-06T00:58:50;26.80;63.02
65478;SHT31;53678;39.642;22.430;2023-08-06T01:01:15;26.85;62.94
65478;SHT31;53678;39.642;22.430;2023-08-06T01:03:41;26.96;62.90
65478;SHT31;53678;39.642;22.430;2023-08-06T01:06:07;26.92;62.77
65478;SHT31;53678;39.642;22.430;2023-08-06T01:08:58;26.99;62.82
65478;SHT31;53678;39.642;22.430;2023-08-06T01:11:40;27.00;62.33
65478;SHT31;53678;39.642;22.430;2023-08-06T01:14:23;27.10;62.13
65478;SHT31;53678;39.642;22.430;2023-08-06T01:16:54;27.10;61.82
65478;SHT31;53678;39.642;22.430;2023-08-06T01:19:21;27.17;61.30
65478;SHT31;53678;39.642;22.430;2023-08-06T01:21:47;27.16;60.76
65478;SHT31;53678;39.642;22.430;2023-08-06T01:24:13;27.18;60.78
65478;SHT31;53678;39.642;22.430;2023-08-06T01:26:49;27.22;60.91
65478;SHT31;53678;39.642;22.430;2023-08-06T01:29:47;27.37;60.56
65478;SHT31;53678;39.642;22.430;2023-08-06T01:32:14;27.43;60.30
65478;SHT31;53678;39.642;22.430;2023-08-06T01:34:43;27.45;60.25
65478;SHT31;53678;39.642;22.430;2023-08-06T01:37:11;27.47;59.94
65478;SHT31;53678;39.642;22.430;2023-08-06T01:39:36;27.40;60.11
65478;SHT31;53678;39.642;22.430;2023-08-06T01:42:03;27.38;60.24
65478;SHT31;53678;39.642;22.430;2023-08-06T01:44:29;27.33;60.24
65478;SHT31;53678;39.642;22.430;2023-08-06T01:46:55;27.33;60.32
65478;SHT31;53678;39.642;22.430;2023-08-06T01:49:20;27.41;59.74
65478;SHT31;53678;39.642;22.430;2023-08-06T01:51:46;27.31;59.86
65478;SHT31;53678;39.642;22.430;2023-08-06T01:54:11;27.38;59.73
65478;SHT31;53678;39.642;22.430;2023-08-06T01:56:37;27.41;59.64
65478;SHT31;53678;39.642;22.430;2023-08-06T01:59:03;27.51;59.26
65478;SHT31;53678;39.642;22.430;2023-08-06T02:01:29;27.57;58.99
65478;SHT31;53678;39.642;22.430;2023-08-06T02:03:54;27.47;59.25
65478;SHT31;53678;39.642;22.430;2023-08-06T02:06:20;27.44;59.32
65478;SHT31;53678;39.642;22.430;2023-08-06T02:08:46;27.43;59.17
65478;SHT31;53678;39.642;22.430;2023-08-06T02:11:14;27.34;59.53
65478;SHT31;53678;39.642;22.430;2023-08-06T02:13:40;27.33;59.30
65478;SHT31;53678;39.642;22.430;2023-08-06T02:16:09;27.37;59.40
65478;SHT31;53678;39.642;22.430;2023-08-06T02:18:35;27.35;59.40
65478;SHT31;53678;39.642;22.430;2023-08-06T02:21:01;27.48;59.05
65478;SHT31;53678;39.642;22.430;2023-08-06T02:23:28;27.45;59.17
65478;SHT31;53678;39.642;22.430;2023-08-06T02:26:11;27.44;58.89
65478;SHT31;53678;39.642;22.430;2023-08-06T02:28:37;27.45;59.03
65478;SHT31;53678;39.642;22.430;2023-08-06T02:31:03;27.34;59.11
65478;SHT31;53678;39.642;22.430;2023-08-06T02:33:28;27.22;59.29
65478;SHT31;53678;39.642;22.430;2023-08-06T02:36:01;27.14;59.40
65478;SHT31;53678;39.642;22.430;2023-08-06T02:38:29;27.13;59.62
65478;SHT31;53678;39.642;22.430;2023-08-06T02:40:55;26.99;60.62
65478;SHT31;53678;39.642;22.430;2023-08-06T02:43:22;26.83;61.33
65478;SHT31;53678;39.642;22.430;2023-08-06T02:45:48;26.32;62.79
65478;SHT31;53678;39.642;22.430;2023-08-06T02:48:14;26.07;63.35
65478;SHT31;53678;39.642;22.430;2023-08-06T02:50:41;25.76;64.77
65478;SHT31;53678;39.642;22.430;2023-08-06T02:53:08;25.45;65.77
65478;SHT31;53678;39.642;22.430;2023-08-06T02:55:34;25.49;65.62
65478;SHT31;53678;39.642;22.430;2023-08-06T02:58:03;25.73;64.63
65478;SHT31;53678;39.642;22.430;2023-08-06T03:00:33;25.94;64.15
65478;SHT31;53678;39.642;22.430;2023-08-06T03:02:59;26.00;63.50
65478;SHT31;53678;39.642;22.430;2023-08-06T03:05:33;25.58;65.62
65478;SHT31;53678;39.642;22.430;2023-08-06T03:07:59;25.33;66.23
65478;SHT31;53678;39.642;22.430;2023-08-06T03:10:27;25.22;66.61
65478;SHT31;53678;39.642;22.430;2023-08-06T03:12:56;25.36;65.87
65478;SHT31;53678;39.642;22.430;2023-08-06T03:15:22;25.51;65.63
65478;SHT31;53678;39.642;22.430;2023-08-06T03:17:49;25.66;65.20
65478;SHT31;53678;39.642;22.430;2023-08-06T03:20:18;25.83;64.52
65478;SHT31;53678;39.642;22.430;2023-08-06T03:22:44;26.00;64.06
65478;SHT31;53678;39.642;22.430;2023-08-06T03:25:10;26.11;63.86
65478;SHT31;53678;39.642;22.430;2023-08-06T03:27:36;26.20;63.33
65478;SHT31;53678;39.642;22.430;2023-08-06T03:30:02;26.14;63.15
65478;SHT31;53678;39.642;22.430;2023-08-06T03:32:29;26.07;63.59
65478;SHT31;53678;39.642;22.430;2023-08-06T03:34:55;26.08;63.76
65478;SHT31;53678;39.642;22.430;2023-08-06T03:37:22;26.13;63.94
65478;SHT31;53678;39.642;22.430;2023-08-06T03:39:50;26.08;64.01
65478;SHT31;53678;39.642;22.430;2023-08-06T03:42:16;26.24;63.74
65478;SHT31;53678;39.642;22.430;2023-08-06T03:44:42;26.60;63.07
65478;SHT31;53678;39.642;22.430;2023-08-06T03:47:09;27.02;61.30
65478;SHT31;53678;39.642;22.430;2023-08-06T03:49:35;27.47;60.14
65478;SHT31;53678;39.642;22.430;2023-08-06T03:52:03;28.03;58.58
65478;SHT31;53678;39.642;22.430;2023-08-06T03:54:28;27.88;58.44
65478;SHT31;53678;39.642;22.430;2023-08-06T03:56:55;27.99;58.62
65478;SHT31;53678;39.642;22.430;2023-08-06T03:59:21;28.39;57.83
65478;SHT31;53678;39.642;22.430;2023-08-06T04:01:47;28.35;57.03
65478;SHT31;53678;39.642;22.430;2023-08-06T04:04:13;28.08;58.04
65478;SHT31;53678;39.642;22.430;2023-08-06T04:06:38;28.33;57.90
65478;SHT31;53678;39.642;22.430;2023-08-06T04:09:04;28.88;55.83
65478;SHT31;53678;39.642;22.430;2023-08-06T04:11:30;29.57;54.87
65478;SHT31;53678;39.642;22.430;2023-08-06T04:13:55;30.25;52.87
65478;SHT31;53678;39.642;22.430;2023-08-06T04:16:23;31.03;51.66
65478;SHT31;53678;39.642;22.430;2023-08-06T04:18:49;30.90;51.39
65478;SHT31;53678;39.642;22.430;2023-08-06T04:21:15;31.40;50.79
65478;SHT31;53678;39.642;22.430;2023-08-06T04:23:40;32.18;49.66
65478;SHT31;53678;39.642;22.430;2023-08-06T04:26:07;33.05;47.73
65478;SHT31;53678;39.642;22.430;2023-08-06T04:28:35;33.42;46.34
65478;SHT31;53678;39.642;22.430;2023-08-06T04:31:00;33.45;45.78
65478;SHT31;53678;39.642;22.430;2023-08-06T04:33:27;32.84;46.56
65478;SHT31;53678;39.642;22.430;2023-08-06T04:35:55;32.39;47.07
65478;SHT31;53678;39.642;22.430;2023-08-06T04:38:25;32.84;46.76
65478;SHT31;53678;39.642;22.430;2023-08-06T04:40:52;33.48;45.75
65478;SHT31;53678;39.642;22.430;2023-08-06T04:43:19;33.65;45.19
65478;SHT31;53678;39.642;22.430;2023-08-06T04:45:50;34.33;44.52
65478;SHT31;53678;39.642;22.430;2023-08-06T04:48:17;35.07;43.13
65478;SHT31;53678;39.642;22.430;2023-08-06T04:50:46;34.68;42.83
65478;SHT31;53678;39.642;22.430;2023-08-06T04:53:12;34.27;43.85
65478;SHT31;53678;39.642;22.430;2023-08-06T04:55:38;34.23;43.43
65478;SHT31;53678;39.642;22.430;2023-08-06T04:58:04;34.59;42.93
65478;SHT31;53678;39.642;22.430;2023-08-06T05:00:30;34.23;43.31
65478;SHT31;53678;39.642;22.430;2023-08-06T05:02:56;33.00;45.28
65478;SHT31;53678;39.642;22.430;2023-08-06T05:05:21;32.70;45.69
65478;SHT31;53678;39.642;22.430;2023-08-06T05:07:49;32.36;46.51
65478;SHT31;53678;39.642;22.430;2023-08-06T05:10:16;32.67;46.14
65478;SHT31;53678;39.642;22.430;2023-08-06T05:12:41;32.91;45.89
65478;SHT31;53678;39.642;22.430;2023-08-06T05:15:07;32.78;46.41
65478;SHT31;53678;39.642;22.430;2023-08-06T05:17:33;33.61;44.93
65478;SHT31;53678;39.642;22.430;2023-08-06T05:19:59;33.51;45.14
65478;SHT31;53678;39.642;22.430;2023-08-06T05:22:25;33.74;44.71
65478;SHT31;53678;39.642;22.430;2023-08-06T05:24:51;34.75;43.05
65478;SHT31;53678;39.642;22.430;2023-08-06T05:27:17;35.70;41.98
65478;SHT31;53678;39.642;22.430;2023-08-06T05:29:44;36.48;40.81
65478;SHT31;53678;39.642;22.430;2023-08-06T05:32:10;36.83;40.18
65478;SHT31;53678;39.642;22.430;2023-08-06T05:34:36;37.04;39.77
65478;SHT31;53678;39.642;22.430;2023-08-06T05:37:03;37.14;39.41
65478;SHT31;53678;39.642;22.430;2023-08-06T05:39:28;37.11;39.43
65478;SHT31;53678;39.642;22.430;2023-08-06T05:41:54;37.37;39.30
65478;SHT31;53678;39.642;22.430;2023-08-06T05:44:21;37.26;39.15
65478;SHT31;53678;39.642;22.430;2023-08-06T05:46:47;37.38;39.35
65478;SHT31;53678;39.642;22.430;2023-08-06T05:49:12;37.09;39.07
65478;SHT31;53678;39.642;22.430;2023-08-06T05:51:39;36.63;39.75
65478;SHT31;53678;39.642;22.430;2023-08-06T05:54:05;36.08;40.33
65478;SHT31;53678;39.642;22.430;2023-08-06T05:56:31;35.61;40.49
65478;SHT31;53678;39.642;22.430;2023-08-06T05:58:56;35.30;40.73
65478;SHT31;53678;39.642;22.430;2023-08-06T06:01:22;34.36;41.48
65478;SHT31;53678;39.642;22.430;2023-08-06T06:03:48;32.57;43.98
65478;SHT31;53678;39.642;22.430;2023-08-06T06:06:14;31.51;46.03
65478;SHT31;53678;39.642;22.430;2023-08-06T06:08:40;31.40;46.55
65478;SHT31;53678;39.642;22.430;2023-08-06T06:11:05;31.00;47.21
65478;SHT31;53678;39.642;22.430;2023-08-06T06:13:31;31.29;47.01
65478;SHT31;53678;39.642;22.430;2023-08-06T06:15:57;31.09;47.18
65478;SHT31;53678;39.642;22.430;2023-08-06T06:18:22;31.93;46.24
65478;SHT31;53678;39.642;22.430;2023-08-06T06:20:48;32.43;45.25
65478;SHT31;53678;39.642;22.430;2023-08-06T06:23:14;32.33;45.78
65478;SHT31;53678;39.642;22.430;2023-08-06T06:25:43;32.81;45.26
65478;SHT31;53678;39.642;22.430;2023-08-06T06:28:09;32.55;45.26
65478;SHT31;53678;39.642;22.430;2023-08-06T06:30:35;32.84;44.88
65478;SHT31;53678;39.642;22.430;2023-08-06T06:33:01;31.62;46.60
65478;SHT31;53678;39.642;22.430;2023-08-06T06:35:26;31.78;46.79
65478;SHT31;53678;39.642;22.430;2023-08-06T06:37:52;32.16;46.18
65478;SHT31;53678;39.642;22.430;2023-08-06T06:40:18;32.71;45.63
65478;SHT31;53678;39.642;22.430;2023-08-06T06:42:43;32.44;45.49
65478;SHT31;53678;39.642;22.430;2023-08-06T06:45:09;31.31;47.80
65478;SHT31;53678;39.642;22.430;2023-08-06T06:47:35;31.93;46.75
65478;SHT31;53678;39.642;22.430;2023-08-06T06:50:01;31.98;46.08
65478;SHT31;53678;39.642;22.430;2023-08-06T06:52:26;32.04;46.31
65478;SHT31;53678;39.642;22.430;2023-08-06T06:54:52;32.20;45.61
65478;SHT31;53678;39.642;22.430;2023-08-06T06:57:18;32.12;45.73
65478;SHT31;53678;39.642;22.430;2023-08-06T06:59:43;31.95;45.04
65478;SHT31;53678;39.642;22.430;2023-08-06T07:02:09;31.85;45.61
65478;SHT31;53678;39.642;22.430;2023-08-06T07:04:34;32.25;44.91
65478;SHT31;53678;39.642;22.430;2023-08-06T07:07:00;32.12;45.17
65478;SHT31;53678;39.642;22.430;2023-08-06T07:09:26;31.95;45.43
65478;SHT31;53678;39.642;22.430;2023-08-06T07:11:52;32.23;44.80
65478;SHT31;53678;39.642;22.430;2023-08-06T07:14:17;31.90;44.74
65478;SHT31;53678;39.642;22.430;2023-08-06T07:16:43;32.16;44.78
65478;SHT31;53678;39.642;22.430;2023-08-06T07:19:09;32.50;43.95
65478;SHT31;53678;39.642;22.430;2023-08-06T07:21:35;32.57;43.63
65478;SHT31;53678;39.642;22.430;2023-08-06T07:24:00;32.27;44.16
65478;SHT31;53678;39.642;22.430;2023-08-06T07:26:26;32.60;43.36
65478;SHT31;53678;39.642;22.430;2023-08-06T07:28:52;32.92;43.36
65478;SHT31;53678;39.642;22.430;2023-08-06T07:31:18;33.41;42.30
65478;SHT31;53678;39.642;22.430;2023-08-06T07:33:43;33.70;42.22
65478;SHT31;53678;39.642;22.430;2023-08-06T07:36:11;33.79;41.71
65478;SHT31;53678;39.642;22.430;2023-08-06T07:38:37;33.85;41.42
65478;SHT31;53678;39.642;22.430;2023-08-06T07:41:03;33.99;41.54
65478;SHT31;53678;39.642;22.430;2023-08-06T07:43:29;34.57;40.72
65478;SHT31;53678;39.642;22.430;2023-08-06T07:45:58;34.85;39.35
65478;SHT31;53678;39.642;22.430;2023-08-06T07:48:24;34.71;39.61
65478;SHT31;53678;39.642;22.430;2023-08-06T07:50:56;34.94;39.16
65478;SHT31;53678;39.642;22.430;2023-08-06T07:53:23;35.15;38.83
65478;SHT31;53678;39.642;22.430;2023-08-06T07:55:50;35.29;38.61
65478;SHT31;53678;39.642;22.430;2023-08-06T07:58:16;35.54;38.42
65478;SHT31;53678;39.642;22.430;2023-08-06T08:00:42;35.85;38.35
65478;SHT31;53678;39.642;22.430;2023-08-06T08:03:12;35.58;38.45
65478;SHT31;53678;39.642;22.430;2023-08-06T08:05:44;35.51;38.65
65478;SHT31;53678;39.642;22.430;2023-08-06T08:08:10;34.17;40.00
65478;SHT31;53678;39.642;22.430;2023-08-06T08:10:36;34.13;40.43
65478;SHT31;53678;39.642;22.430;2023-08-06T08:13:03;34.58;39.77
65478;SHT31;53678;39.642;22.430;2023-08-06T08:15:31;35.16;39.27
65478;SHT31;53678;39.642;22.430;2023-08-06T08:17:57;35.56;38.47
65478;SHT31;53678;39.642;22.430;2023-08-06T08:20:23;35.32;38.22
65478;SHT31;53678;39.642;22.430;2023-08-06T08:22:49;35.15;38.80
65478;SHT31;53678;39.642;22.430;2023-08-06T08:25:16;34.77;38.71
65478;SHT31;53678;39.642;22.430;2023-08-06T08:27:42;34.94;38.62
65478;SHT31;53678;39.642;22.430;2023-08-06T08:30:08;34.81;38.68
65478;SHT31;53678;39.642;22.430;2023-08-06T08:32:33;34.92;38.82
65478;SHT31;53678;39.642;22.430;2023-08-06T08:34:59;35.23;38.26
65478;SHT31;53678;39.642;22.430;2023-08-06T08:37:25;34.96;38.12
65478;SHT31;53678;39.642;22.430;2023-08-06T08:39:50;34.94;38.15
65478;SHT31;53678;39.642;22.430;2023-08-06T08:42:17;34.51;39.07
65478;SHT31;53678;39.642;22.430;2023-08-06T08:44:44;34.75;37.94
65478;SHT31;53678;39.642;22.430;2023-08-06T08:47:10;34.47;38.07
65478;SHT31;53678;39.642;22.430;2023-08-06T08:49:37;33.86;38.42
65478;SHT31;53678;39.642;22.430;2023-08-06T08:52:04;33.93;38.88
65478;SHT31;53678;39.642;22.430;2023-08-06T08:54:35;33.94;38.87
65478;SHT31;53678;39.642;22.430;2023-08-06T08:57:03;33.82;39.10
65478;SHT31;53678;39.642;22.430;2023-08-06T08:59:29;33.68;39.18
65478;SHT31;53678;39.642;22.430;2023-08-06T09:01:55;34.23;38.72
65478;SHT31;53678;39.642;22.430;2023-08-06T09:04:21;34.04;38.95
65478;SHT31;53678;39.642;22.430;2023-08-06T09:06:50;34.13;38.38
65478;SHT31;53678;39.642;22.430;2023-08-06T09:09:26;34.28;38.37
65478;SHT31;53678;39.642;22.430;2023-08-06T09:11:59;34.19;38.27
65478;SHT31;53678;39.642;22.430;2023-08-06T09:14:26;34.57;37.98
65478;SHT31;53678;39.642;22.430;2023-08-06T09:16:52;34.77;37.45
65478;SHT31;53678;39.642;22.430;2023-08-06T09:19:17;34.96;37.06
65478;SHT31;53678;39.642;22.430;2023-08-06T09:21:45;34.88;36.68
65478;SHT31;53678;39.642;22.430;2023-08-06T09:24:14;34.95;36.57
65478;SHT31;53678;39.642;22.430;2023-08-06T09:26:41;34.79;36.92
65478;SHT31;53678;39.642;22.430;2023-08-06T09:29:08;34.50;37.82
65478;SHT31;53678;39.642;22.430;2023-08-06T09:31:49;34.72;37.70
65478;SHT31;53678;39.642;22.430;2023-08-06T09:34:21;34.52;37.70
65478;SHT31;53678;39.642;22.430;2023-08-06T09:36:49;34.38;37.71
65478;SHT31;53678;39.642;22.430;2023-08-06T09:39:21;34.13;37.96
65478;SHT31;53678;39.642;22.430;2023-08-06T09:41:47;34.27;37.98
65478;SHT31;53678;39.642;22.430;2023-08-06T09:44:18;34.55;37.70
65478;SHT31;53678;39.642;22.430;2023-08-06T09:46:51;34.27;37.60
65478;SHT31;53678;39.642;22.430;2023-08-06T09:49:42;33.72;38.56
65478;SHT31;53678;39.642;22.430;2023-08-06T09:52:14;33.99;37.84
65478;SHT31;53678;39.642;22.430;2023-08-06T09:54:43;34.38;37.66
65478;SHT31;53678;39.642;22.430;2023-08-06T09:57:09;34.50;37.83
65478;SHT31;53678;39.642;22.430;2023-08-06T09:59:37;34.50;37.24
65478;SHT31;53678;39.642;22.430;2023-08-06T10:02:12;33.93;37.64
65478;SHT31;53678;39.642;22.430;2023-08-06T10:04:39;34.21;36.91
65478;SHT31;53678;39.642;22.430;2023-08-06T10:07:04;34.25;36.81
65478;SHT31;53678;39.642;22.430;2023-08-06T10:09:30;34.34;35.94
65478;SHT31;53678;39.642;22.430;2023-08-06T10:11:56;34.64;36.02
65478;SHT31;53678;39.642;22.430;2023-08-06T10:14:28;34.17;36.63
65478;SHT31;53678;39.642;22.430;2023-08-06T10:16:57;33.86;36.24
65478;SHT31;53678;39.642;22.430;2023-08-06T10:19:25;33.43;37.11
65478;SHT31;53678;39.642;22.430;2023-08-06T10:24:55;34.14;36.92
65478;SHT31;53678;39.642;22.430;2023-08-06T10:29:47;33.53;38.38
65478;SHT31;53678;39.642;22.430;2023-08-06T10:32:14;33.68;38.54
65478;SHT31;53678;39.642;22.430;2023-08-06T10:34:59;34.01;38.26
65478;SHT31;53678;39.642;22.430;2023-08-06T10:37:36;34.27;36.32
65478;SHT31;53678;39.642;22.430;2023-08-06T10:40:02;34.19;36.17
65478;SHT31;53678;39.642;22.430;2023-08-06T10:42:29;33.92;35.67
65478;SHT31;53678;39.642;22.430;2023-08-06T10:45:17;33.72;36.04
65478;SHT31;53678;39.642;22.430;2023-08-06T10:47:45;33.39;36.64
65478;SHT31;53678;39.642;22.430;2023-08-06T10:50:15;33.24;37.28
65478;SHT31;53678;39.642;22.430;2023-08-06T10:52:46;33.19;37.06
65478;SHT31;53678;39.642;22.430;2023-08-06T10:58:07;33.70;37.16
65478;SHT31;53678;39.642;22.430;2023-08-06T11:00:33;33.41;36.54
65478;SHT31;53678;39.642;22.430;2023-08-06T11:02:59;33.73;36.40
65478;SHT31;53678;39.642;22.430;2023-08-06T11:05:24;34.34;35.97
65478;SHT31;53678;39.642;22.430;2023-08-06T11:07:50;34.50;35.59
65478;SHT31;53678;39.642;22.430;2023-08-06T11:10:16;34.58;35.66
65478;SHT31;53678;39.642;22.430;2023-08-06T11:12:42;34.72;35.42
65478;SHT31;53678;39.642;22.430;2023-08-06T11:15:08;34.95;35.30
65478;SHT31;53678;39.642;22.430;2023-08-06T11:17:35;35.32;34.84
65478;SHT31;53678;39.642;22.430;2023-08-06T11:20:03;35.15;34.53
65478;SHT31;53678;39.642;22.430;2023-08-06T11:22:29;34.59;35.12
65478;SHT31;53678;39.642;22.430;2023-08-06T11:24:55;34.50;35.24
65478;SHT31;53678;39.642;22.430;2023-08-06T11:27:21;34.40;35.43
65478;SHT31;53678;39.642;22.430;2023-08-06T11:29:47;34.34;35.43
65478;SHT31;53678;39.642;22.430;2023-08-06T11:32:12;34.38;35.35
65478;SHT31;53678;39.642;22.430;2023-08-06T11:34:39;34.33;35.26
65478;SHT31;53678;39.642;22.430;2023-08-06T11:37:06;33.86;35.37
65478;SHT31;53678;39.642;22.430;2023-08-06T11:39:35;33.58;36.07
65478;SHT31;53678;39.642;22.430;2023-08-06T11:42:06;33.76;36.14
65478;SHT31;53678;39.642;22.430;2023-08-06T11:44:34;34.07;35.51
65478;SHT31;53678;39.642;22.430;2023-08-06T11:47:02;34.43;35.56
65478;SHT31;53678;39.642;22.430;2023-08-06T11:49:47;34.16;35.74
65478;SHT31;53678;39.642;22.430;2023-08-06T11:52:22;34.11;35.83
65478;SHT31;53678;39.642;22.430;2023-08-06T11:55:05;34.40;35.78
65478;SHT31;53678;39.642;22.430;2023-08-06T11:57:34;34.00;36.42
65478;SHT31;53678;39.642;22.430;2023-08-06T12:00:04;34.40;36.29
65478;SHT31;53678;39.642;22.430;2023-08-06T12:02:41;34.72;35.76
65478;SHT31;53678;39.642;22.430;2023-08-06T12:07:45;34.33;36.06
65478;SHT31;53678;39.642;22.430;2023-08-06T12:10:12;34.55;36.16
65478;SHT31;53678;39.642;22.430;2023-08-06T12:12:38;34.79;35.79
65478;SHT31;53678;39.642;22.430;2023-08-06T12:15:05;34.71;35.63
65478;SHT31;53678;39.642;22.430;2023-08-06T12:17:34;34.92;35.83
65478;SHT31;53678;39.642;22.430;2023-08-06T12:20:00;34.16;36.26
65478;SHT31;53678;39.642;22.430;2023-08-06T12:22:26;34.20;36.23
65478;SHT31;53678;39.642;22.430;2023-08-06T12:24:52;33.70;36.53
65478;SHT31;53678;39.642;22.430;2023-08-06T12:27:18;33.88;36.53
65478;SHT31;53678;39.642;22.430;2023-08-06T12:29:45;34.07;36.66
65478;SHT31;53678;39.642;22.430;2023-08-06T12:32:12;33.89;36.76
65478;SHT31;53678;39.642;22.430;2023-08-06T12:34:41;33.62;36.86
65478;SHT31;53678;39.642;22.430;2023-08-06T12:37:08;33.53;37.05
65478;SHT31;53678;39.642;22.430;2023-08-06T12:39:35;33.38;37.07
65478;SHT31;53678;39.642;22.430;2023-08-06T12:42:02;33.68;36.91
65478;SHT31;53678;39.642;22.430;2023-08-06T12:44:28;33.93;36.89
65478;SHT31;53678;39.642;22.430;2023-08-06T12:46:54;33.86;37.09
65478;SHT31;53678;39.642;22.430;2023-08-06T12:49:20;33.93;36.89
65478;SHT31;53678;39.642;22.430;2023-08-06T12:51:50;34.23;36.59
65478;SHT31;53678;39.642;22.430;2023-08-06T12:54:25;34.19;36.73
65478;SHT31;53678;39.642;22.430;2023-08-06T12:56:51;33.79;36.63
65478;SHT31;53678;39.642;22.430;2023-08-06T12:59:17;33.59;36.72
65478;SHT31;53678;39.642;22.430;2023-08-06T13:01:44;33.73;36.86
65478;SHT31;53678;39.642;22.430;2023-08-06T13:04:10;34.03;36.45
65478;SHT31;53678;39.642;22.430;2023-08-06T13:06:37;34.01;36.21
65478;SHT31;53678;39.642;22.430;2023-08-06T13:09:03;34.10;36.18
65478;SHT31;53678;39.642;22.430;2023-08-06T13:11:30;34.30;35.96
65478;SHT31;53678;39.642;22.430;2023-08-06T13:14:04;34.61;35.65
65478;SHT31;53678;39.642;22.430;2023-08-06T13:16:31;34.81;35.66
65478;SHT31;53678;39.642;22.430;2023-08-06T13:18:56;35.06;35.93
65478;SHT31;53678;39.642;22.430;2023-08-06T13:21:22;35.33;35.58
65478;SHT31;53678;39.642;22.430;2023-08-06T13:23:48;35.49;35.53
65478;SHT31;53678;39.642;22.430;2023-08-06T13:26:14;35.42;35.27
65478;SHT31;53678;39.642;22.430;2023-08-06T13:28:41;35.36;35.97
65478;SHT31;53678;39.642;22.430;2023-08-06T13:31:07;35.39;35.89
65478;SHT31;53678;39.642;22.430;2023-08-06T13:33:33;35.36;35.67
65478;SHT31;53678;39.642;22.430;2023-08-06T13:35:58;35.37;35.35
65478;SHT31;53678;39.642;22.430;2023-08-06T13:38:24;35.29;35.14
65478;SHT31;53678;39.642;22.430;2023-08-06T13:40:50;35.02;35.29
65478;SHT31;53678;39.642;22.430;2023-08-06T13:43:16;35.16;35.30
65478;SHT31;53678;39.642;22.430;2023-08-06T13:45:44;34.89;35.61
65478;SHT31;53678;39.642;22.430;2023-08-06T13:48:10;35.23;35.18
65478;SHT31;53678;39.642;22.430;2023-08-06T13:50:36;35.46;35.00
65478;SHT31;53678;39.642;22.430;2023-08-06T13:53:02;35.58;34.45
65478;SHT31;53678;39.642;22.430;2023-08-06T13:55:28;35.50;34.51
65478;SHT31;53678;39.642;22.430;2023-08-06T13:57:55;35.50;34.57
65478;SHT31;53678;39.642;22.430;2023-08-06T14:00:20;35.36;34.57
65478;SHT31;53678;39.642;22.430;2023-08-06T14:02:46;35.39;34.67
65478;SHT31;53678;39.642;22.430;2023-08-06T14:05:12;35.46;34.78
65478;SHT31;53678;39.642;22.430;2023-08-06T14:07:38;35.39;34.15
65478;SHT31;53678;39.642;22.430;2023-08-06T14:10:04;35.19;34.18
65478;SHT31;53678;39.642;22.430;2023-08-06T14:12:31;35.35;34.74
65478;SHT31;53678;39.642;22.430;2023-08-06T14:14:56;35.32;35.42
65478;SHT31;53678;39.642;22.430;2023-08-06T14:17:22;35.36;35.35
65478;SHT31;53678;39.642;22.430;2023-08-06T14:19:48;35.44;34.24
65478;SHT31;53678;39.642;22.430;2023-08-06T14:22:13;35.40;34.68
65478;SHT31;53678;39.642;22.430;2023-08-06T14:24:39;35.30;35.72
65478;SHT31;53678;39.642;22.430;2023-08-06T14:27:05;35.00;36.23
65478;SHT31;53678;39.642;22.430;2023-08-06T14:29:31;35.05;36.15
65478;SHT31;53678;39.642;22.430;2023-08-06T14:31:57;35.09;35.98
65478;SHT31;53678;39.642;22.430;2023-08-06T14:34:23;35.00;36.82
65478;SHT31;53678;39.642;22.430;2023-08-06T14:36:48;34.92;37.05
65478;SHT31;53678;39.642;22.430;2023-08-06T14:39:14;34.84;36.94
65478;SHT31;53678;39.642;22.430;2023-08-06T14:41:39;34.78;37.06
65478;SHT31;53678;39.642;22.430;2023-08-06T14:44:05;34.77;37.54
65478;SHT31;53678;39.642;22.430;2023-08-06T14:46:33;34.62;37.90
65478;SHT31;53678;39.642;22.430;2023-08-06T14:48:58;34.64;37.93
65478;SHT31;53678;39.642;22.430;2023-08-06T14:51:24;34.37;37.68
65478;SHT31;53678;39.642;22.430;2023-08-06T14:53:50;34.48;37.51
65478;SHT31;53678;39.642;22.430;2023-08-06T14:56:16;34.58;37.42
65478;SHT31;53678;39.642;22.430;2023-08-06T14:58:41;34.57;37.69
65478;SHT31;53678;39.642;22.430;2023-08-06T15:01:07;34.55;37.89
65478;SHT31;53678;39.642;22.430;2023-08-06T15:03:33;34.40;38.22
65478;SHT31;53678;39.642;22.430;2023-08-06T15:05:59;34.23;38.69
65478;SHT31;53678;39.642;22.430;2023-08-06T15:08:25;34.31;38.56
65478;SHT31;53678;39.642;22.430;2023-08-06T15:10:54;34.23;38.82
65478;SHT31;53678;39.642;22.430;2023-08-06T15:13:20;34.19;38.69
65478;SHT31;53678;39.642;22.430;2023-08-06T15:15:49;34.31;38.41
65478;SHT31;53678;39.642;22.430;2023-08-06T15:18:15;34.23;38.67
65478;SHT31;53678;39.642;22.430;2023-08-06T15:20:41;34.30;38.60
65478;SHT31;53678;39.642;22.430;2023-08-06T15:23:06;33.99;38.87
65478;SHT31;53678;39.642;22.430;2023-08-06T15:25:32;34.14;38.64